La Cassidaigne — FT7120 — position and weather

sailwx.info

Track history (hours):
 
Tides and Currents Weather Stations Pressure Air Temp Water Temp Dewpoint Dewpoint Depression Visibility Wind Speed Wind Dir Waves Ship Positions

La Cassidaigne

Last reported at 2017-Oct-16 14:40 UTC. Time now 2017-Oct-17 11:32 UTC.
Position N 43°24' E 004°59'.

Length 16 m; draft 1 m.

Type: Ship. MMSI: 227005760.

Date/timePositionNaut miles runAvg speedWind from/ knotsBaromVisibWave heightAir tempDewpointWater temp
2017-Oct-16 14:40N 43°24' E 004°59'0 0.0
2017-Oct-16 13:59N 43°24' E 004°59'0 0.0
2017-Oct-16 13:29N 43°24' E 004°59'0 0.6
2017-Oct-16 12:43N 43°24' E 004°59'0 1.7
2017-Oct-16 12:27N 43°24' E 004°59'0 0.0
2017-Oct-16 12:00N 43°24' E 004°59'0 0.0
2017-Oct-16 11:30N 43°24' E 004°59'0 0.0
2017-Oct-16 11:00N 43°24' E 004°59'0 0.0
2017-Oct-16 10:30N 43°24' E 004°59'0 0.0
2017-Oct-16 09:57N 43°24' E 004°59'0 0.0
2017-Oct-16 09:30N 43°24' E 004°59'1 1.3
2017-Oct-16 08:55N 43°24' E 004°58'1 1.4
2017-Oct-16 08:22N 43°24' E 004°59'0 0.0
2017-Oct-16 07:58N 43°24' E 004°59'0 0.0
2017-Oct-16 07:28N 43°24' E 004°59'0 0.0
2017-Oct-15 16:14N 43°24' E 004°59'1 1.4
2017-Oct-15 15:50N 43°24' E 004°59'1 1.6
2017-Oct-15 15:29N 43°24' E 004°59'0 0.0
2017-Oct-14 16:31N 43°24' E 004°59'0 0.0
2017-Oct-14 16:30N 43°24' E 004°59'0 0.0
2017-Oct-14 15:58N 43°24' E 004°59'0 0.0
2017-Oct-13 22:07N 43°24' E 004°59'0 0.8
2017-Oct-13 21:55N 43°24' E 004°59'0 1.0
2017-Oct-13 21:30N 43°24' E 004°59'0 0.0
2017-Oct-13 21:00N 43°24' E 004°59'0 0.0
2017-Oct-13 20:30N 43°24' E 004°59'0 0.0
2017-Oct-13 20:00N 43°24' E 004°59'0 0.7
2017-Oct-13 19:25N 43°24' E 004°59'0 0.9
2017-Oct-13 18:58N 43°24' E 004°59'0 0.0
2017-Oct-13 17:16N 43°24' E 004°59'0 0.2
2017-Oct-13 16:44N 43°24' E 004°59'0 1.3
2017-Oct-13 16:24N 43°24' E 004°59'1 1.2
2017-Oct-13 15:56N 43°24' E 004°59'0 0.0
2017-Oct-13 15:29N 43°24' E 004°59'0 0.0
2017-Oct-13 15:00N 43°24' E 004°59'0 0.0
2017-Oct-13 14:30N 43°24' E 004°59'0 0.0
2017-Oct-13 14:00N 43°24' E 004°59'0 0.2
2017-Oct-13 13:30N 43°24' E 004°59'0 1.0
2017-Oct-13 13:00N 43°24' E 004°59'0 0.8
2017-Oct-13 12:30N 43°24' E 004°59'0 0.3
2017-Oct-13 11:58N 43°24' E 004°59'0 0.0
2017-Oct-13 11:28N 43°24' E 004°59'0 0.0
2017-Oct-13 10:58N 43°24' E 004°59'0 0.9
2017-Oct-13 10:24N 43°24' E 004°59'0 0.2
2017-Oct-13 09:42N 43°24' E 004°59'1 2.1
2017-Oct-13 09:25N 43°24' E 004°59'0 0.0
2017-Oct-13 08:58N 43°24' E 004°59'0 0.0
2017-Oct-13 08:28N 43°24' E 004°59'0 0.0
2017-Oct-13 07:58N 43°24' E 004°59'0 0.0
2017-Oct-13 07:30N 43°24' E 004°59'0 0.9
2017-Oct-13 07:00N 43°24' E 004°59'0 0.1
2017-Oct-13 04:05N 43°24' E 004°59'0 1.3
2017-Oct-13 03:47N 43°24' E 004°59'0 0.0
2017-Oct-12 18:54N 43°24' E 004°59'0 0.0
2017-Oct-12 18:30N 43°24' E 004°59'0 0.0
2017-Oct-12 18:00N 43°24' E 004°59'1 0.8
2017-Oct-12 17:17N 43°24' E 004°59'1 2.0
2017-Oct-12 17:00N 43°24' E 004°59'3 5.2
2017-Oct-12 16:22N 43°22' E 004°57'3 8.9
2017-Oct-12 16:00N 43°24' E 004°59'0 0.1
2017-Oct-12 15:29N 43°24' E 004°59'0 0.0
2017-Oct-12 14:59N 43°24' E 004°59'0 0.0
2017-Oct-12 14:29N 43°24' E 004°59'0 0.0
2017-Oct-12 13:59N 43°24' E 004°59'0 0.0
2017-Oct-12 13:29N 43°24' E 004°59'0 0.0
2017-Oct-12 12:56N 43°24' E 004°59'0 0.0
2017-Oct-12 12:29N 43°24' E 004°59'0 0.0
2017-Oct-12 11:50N 43°24' E 004°59'0 0.0
2017-Oct-12 11:30N 43°24' E 004°59'3 3.4
2017-Oct-12 10:43N 43°22' E 004°57'2 7.5
2017-Oct-12 10:28N 43°23' E 004°59'1 1.7
2017-Oct-12 09:59N 43°24' E 004°59'0 0.0
2017-Oct-12 08:41N 43°24' E 004°59'0 1.0
2017-Oct-12 08:30N 43°24' E 004°59'0 0.3
2017-Oct-12 08:00N 43°24' E 004°59'0 0.0
2017-Oct-12 04:51N 43°24' E 004°59'0 0.0
2017-Oct-12 04:29N 43°24' E 004°59'0 0.0
2017-Oct-12 03:50N 43°24' E 004°59'0 0.0
2017-Oct-12 03:23N 43°24' E 004°59'0 0.0
2017-Oct-12 02:59N 43°24' E 004°59'0 0.8
2017-Oct-12 02:23N 43°24' E 004°59'0 1.2
2017-Oct-12 02:00N 43°24' E 004°59'0 0.0
2017-Oct-12 01:30N 43°24' E 004°59'0 0.0
2017-Oct-12 00:54N 43°24' E 004°59'0 0.0
2017-Oct-12 00:27N 43°24' E 004°59'0 0.0
2017-Oct-12 00:00N 43°24' E 004°59'0 0.0
2017-Oct-11 23:30N 43°24' E 004°59'1 0.8
2017-Oct-11 22:40N 43°24' E 004°59'1 3.5
2017-Oct-11 22:29N 43°24' E 004°59'0 0.1
2017-Oct-11 18:29N 43°24' E 004°60'1 1.1
2017-Oct-11 17:43N 43°24' E 004°59'1 1.7
2017-Oct-11 17:19N 43°24' E 004°59'1 1.4
2017-Oct-11 16:52N 43°24' E 004°59'1 0.0
2017-Oct-10 20:57N 43°24' E 004°59'0 0.0
2017-Oct-10 20:26N 43°24' E 004°59'0 0.0
2017-Oct-10 19:13N 43°24' E 004°59'1 2.9
2017-Oct-10 18:56N 43°24' E 004°58'1 2.2
2017-Oct-10 18:29N 43°23' E 004°59'2 3.0
2017-Oct-10 17:59N 43°24' E 004°59'1 1.4
2017-Oct-10 17:30N 43°24' E 004°59'1 0.4
2017-Oct-10 15:54N 43°24' E 004°59'0 0.0
2017-Oct-10 15:30N 43°24' E 004°59'0 0.0
2017-Oct-10 15:00N 43°24' E 004°59'0 0.0
2017-Oct-10 14:00N 43°24' E 004°59'0 0.0
2017-Oct-10 13:27N 43°24' E 004°59'0 0.0
2017-Oct-10 13:00N 43°24' E 004°59'1 1.7
2017-Oct-10 12:29N 43°23' E 004°59'1 1.7
2017-Oct-10 11:59N 43°24' E 004°59'0 0.0
2017-Oct-10 11:29N 43°24' E 004°59'0 0.0
2017-Oct-10 10:59N 43°24' E 004°59'0 0.0
2017-Oct-10 10:26N 43°24' E 004°59'0 0.0
2017-Oct-10 09:59N 43°24' E 004°59'0 0.0
2017-Oct-10 09:26N 43°24' E 004°59'0 0.0
2017-Oct-10 08:38N 43°24' E 004°59'0 0.0
2017-Oct-10 08:26N 43°24' E 004°59'0 0.0
2017-Oct-10 07:56N 43°24' E 004°59'1 1.2
2017-Oct-10 07:15N 43°24' E 004°58'1 2.6
2017-Oct-10 06:57N 43°24' E 004°59'0 0.0
2017-Oct-10 06:28N 43°24' E 004°59'0 0.0
2017-Oct-10 05:52N 43°24' E 004°59'0 0.0
2017-Oct-10 05:22N 43°24' E 004°59'1 3.2
2017-Oct-10 05:00N 43°24' E 004°58'1 0.2
2017-Oct-09 23:56N 43°24' E 004°59'0 0.1
2017-Oct-09 23:30N 43°24' E 004°59'0 0.0
2017-Oct-09 22:57N 43°24' E 004°59'0 0.0
2017-Oct-09 22:21N 43°24' E 004°59'0 0.0
2017-Oct-09 21:51N 43°24' E 004°59'0 0.0
2017-Oct-09 21:30N 43°24' E 004°59'0 0.0
2017-Oct-09 21:00N 43°24' E 004°59'0 0.0
2017-Oct-09 20:18N 43°24' E 004°59'0 0.0
2017-Oct-09 20:00N 43°24' E 004°59'1 1.7
2017-Oct-09 19:28N 43°23' E 004°59'1 1.8
2017-Oct-09 18:58N 43°24' E 004°59'0 0.0
2017-Oct-09 18:28N 43°24' E 004°59'0 0.0
2017-Oct-09 17:58N 43°24' E 004°59'0 0.4
2017-Oct-09 17:30N 43°24' E 004°59'0 0.4
2017-Oct-09 17:00N 43°24' E 004°59'1 0.9
2017-Oct-09 15:59N 43°24' E 004°58'1 1.6
2017-Oct-09 15:27N 43°24' E 004°59'0 0.9
2017-Oct-09 14:55N 43°24' E 004°59'0 0.4
2017-Oct-09 14:14N 43°24' E 004°59'1 2.6
2017-Oct-09 13:59N 43°24' E 004°59'0 0.0
2017-Oct-09 13:29N 43°24' E 004°59'0 0.0
2017-Oct-09 12:59N 43°24' E 004°59'1 1.7
2017-Oct-09 12:24N 43°23' E 004°59'1 2.2
2017-Oct-09 11:57N 43°24' E 004°59'0 0.0
2017-Oct-09 11:30N 43°24' E 004°59'1 2.0
2017-Oct-09 11:00N 43°23' E 004°59'1 1.9
2017-Oct-09 10:28N 43°24' E 004°59'0 0.0
2017-Oct-09 09:58N 43°24' E 004°59'0 0.0
2017-Oct-09 09:28N 43°24' E 004°59'0 0.0
2017-Oct-09 08:58N 43°24' E 004°59'0 0.0
2017-Oct-09 08:28N 43°24' E 004°59'0 0.0
2017-Oct-09 07:58N 43°24' E 004°59'1 1.0
2017-Oct-09 07:26N 43°24' E 004°59'1 1.1
2017-Oct-09 06:55N 43°24' E 004°59'0 0.0
2017-Oct-09 06:28N 43°24' E 004°59'0 0.0
2017-Oct-08 10:50N 43°24' E 004°59'1 3.3
2017-Oct-08 10:30N 43°23' E 004°59'1 2.3
2017-Oct-08 10:00N 43°24' E 004°59'0 0.0
2017-Oct-07 13:50N 43°24' E 004°59'0 0.0
2017-Oct-07 13:30N 43°24' E 004°59'0 0.0
2017-Oct-07 13:00N 43°24' E 004°59'0 0.0
2017-Oct-07 12:30N 43°24' E 004°59'0 0.0
2017-Oct-07 12:00N 43°24' E 004°59'0 0.0
2017-Oct-07 09:28N 43°24' E 004°59'0 0.0
2017-Oct-07 08:49N 43°24' E 004°59'  
Track history (hours):
 
Tides and Currents Weather Stations Pressure Air Temp Water Temp Dewpoint Dewpoint Depression Visibility Wind Speed Wind Dir Waves Ship Positions

La Cassidaigne

Last reported at 2017-Oct-16 14:40 UTC. Time now 2017-Oct-17 11:32 UTC.
Position N 43°24' E 004°59'.

Length 16 m; draft 1 m.

Type: Ship. MMSI: 227005760.

Date/timePositionNaut miles runAvg speedWind from/ knotsBaromVisibWave heightAir tempDewpointWater temp
2017-Oct-16 14:40N 43°24' E 004°59'0 0.0
2017-Oct-16 13:59N 43°24' E 004°59'0 0.0
2017-Oct-16 13:29N 43°24' E 004°59'0 0.6
2017-Oct-16 12:43N 43°24' E 004°59'0 1.7
2017-Oct-16 12:27N 43°24' E 004°59'0 0.0
2017-Oct-16 12:00N 43°24' E 004°59'0 0.0
2017-Oct-16 11:30N 43°24' E 004°59'0 0.0
2017-Oct-16 11:00N 43°24' E 004°59'0 0.0
2017-Oct-16 10:30N 43°24' E 004°59'0 0.0
2017-Oct-16 09:57N 43°24' E 004°59'0 0.0
2017-Oct-16 09:30N 43°24' E 004°59'1 1.3
2017-Oct-16 08:55N 43°24' E 004°58'1 1.4
2017-Oct-16 08:22N 43°24' E 004°59'0 0.0
2017-Oct-16 07:58N 43°24' E 004°59'0 0.0
2017-Oct-16 07:28N 43°24' E 004°59'0 0.0
2017-Oct-15 16:14N 43°24' E 004°59'1 1.4
2017-Oct-15 15:50N 43°24' E 004°59'1 1.6
2017-Oct-15 15:29N 43°24' E 004°59'0 0.0
2017-Oct-14 16:31N 43°24' E 004°59'0 0.0
2017-Oct-14 16:30N 43°24' E 004°59'0 0.0
2017-Oct-14 15:58N 43°24' E 004°59'0 0.0
2017-Oct-13 22:07N 43°24' E 004°59'0 0.8
2017-Oct-13 21:55N 43°24' E 004°59'0 1.0
2017-Oct-13 21:30N 43°24' E 004°59'0 0.0
2017-Oct-13 21:00N 43°24' E 004°59'0 0.0
2017-Oct-13 20:30N 43°24' E 004°59'0 0.0
2017-Oct-13 20:00N 43°24' E 004°59'0 0.7
2017-Oct-13 19:25N 43°24' E 004°59'0 0.9
2017-Oct-13 18:58N 43°24' E 004°59'0 0.0
2017-Oct-13 17:16N 43°24' E 004°59'0 0.2
2017-Oct-13 16:44N 43°24' E 004°59'0 1.3
2017-Oct-13 16:24N 43°24' E 004°59'1 1.2
2017-Oct-13 15:56N 43°24' E 004°59'0 0.0
2017-Oct-13 15:29N 43°24' E 004°59'0 0.0
2017-Oct-13 15:00N 43°24' E 004°59'0 0.0
2017-Oct-13 14:30N 43°24' E 004°59'0 0.0
2017-Oct-13 14:00N 43°24' E 004°59'0 0.2
2017-Oct-13 13:30N 43°24' E 004°59'0 1.0
2017-Oct-13 13:00N 43°24' E 004°59'0 0.8
2017-Oct-13 12:30N 43°24' E 004°59'0 0.3
2017-Oct-13 11:58N 43°24' E 004°59'0 0.0
2017-Oct-13 11:28N 43°24' E 004°59'0 0.0
2017-Oct-13 10:58N 43°24' E 004°59'0 0.9
2017-Oct-13 10:24N 43°24' E 004°59'0 0.2
2017-Oct-13 09:42N 43°24' E 004°59'1 2.1
2017-Oct-13 09:25N 43°24' E 004°59'0 0.0
2017-Oct-13 08:58N 43°24' E 004°59'0 0.0
2017-Oct-13 08:28N 43°24' E 004°59'0 0.0
2017-Oct-13 07:58N 43°24' E 004°59'0 0.0
2017-Oct-13 07:30N 43°24' E 004°59'0 0.9
2017-Oct-13 07:00N 43°24' E 004°59'0 0.1
2017-Oct-13 04:05N 43°24' E 004°59'0 1.3
2017-Oct-13 03:47N 43°24' E 004°59'0 0.0
2017-Oct-12 18:54N 43°24' E 004°59'0 0.0
2017-Oct-12 18:30N 43°24' E 004°59'0 0.0
2017-Oct-12 18:00N 43°24' E 004°59'1 0.8
2017-Oct-12 17:17N 43°24' E 004°59'1 2.0
2017-Oct-12 17:00N 43°24' E 004°59'3 5.2
2017-Oct-12 16:22N 43°22' E 004°57'3 8.9
2017-Oct-12 16:00N 43°24' E 004°59'0 0.1
2017-Oct-12 15:29N 43°24' E 004°59'0 0.0
2017-Oct-12 14:59N 43°24' E 004°59'0 0.0
2017-Oct-12 14:29N 43°24' E 004°59'0 0.0
2017-Oct-12 13:59N 43°24' E 004°59'0 0.0
2017-Oct-12 13:29N 43°24' E 004°59'0 0.0
2017-Oct-12 12:56N 43°24' E 004°59'0 0.0
2017-Oct-12 12:29N 43°24' E 004°59'0 0.0
2017-Oct-12 11:50N 43°24' E 004°59'0 0.0
2017-Oct-12 11:30N 43°24' E 004°59'3 3.4
2017-Oct-12 10:43N 43°22' E 004°57'2 7.5
2017-Oct-12 10:28N 43°23' E 004°59'1 1.7
2017-Oct-12 09:59N 43°24' E 004°59'0 0.0
2017-Oct-12 08:41N 43°24' E 004°59'0 1.0
2017-Oct-12 08:30N 43°24' E 004°59'0 0.3
2017-Oct-12 08:00N 43°24' E 004°59'0 0.0
2017-Oct-12 04:51N 43°24' E 004°59'0 0.0
2017-Oct-12 04:29N 43°24' E 004°59'0 0.0
2017-Oct-12 03:50N 43°24' E 004°59'0 0.0
2017-Oct-12 03:23N 43°24' E 004°59'0 0.0
2017-Oct-12 02:59N 43°24' E 004°59'0 0.8
2017-Oct-12 02:23N 43°24' E 004°59'0 1.2
2017-Oct-12 02:00N 43°24' E 004°59'0 0.0
2017-Oct-12 01:30N 43°24' E 004°59'0 0.0
2017-Oct-12 00:54N 43°24' E 004°59'0 0.0
2017-Oct-12 00:27N 43°24' E 004°59'0 0.0
2017-Oct-12 00:00N 43°24' E 004°59'0 0.0
2017-Oct-11 23:30N 43°24' E 004°59'1 0.8
2017-Oct-11 22:40N 43°24' E 004°59'1 3.5
2017-Oct-11 22:29N 43°24' E 004°59'0 0.1
2017-Oct-11 18:29N 43°24' E 004°60'1 1.1
2017-Oct-11 17:43N 43°24' E 004°59'1 1.7
2017-Oct-11 17:19N 43°24' E 004°59'1 1.4
2017-Oct-11 16:52N 43°24' E 004°59'1 0.0
2017-Oct-10 20:57N 43°24' E 004°59'0 0.0
2017-Oct-10 20:26N 43°24' E 004°59'0 0.0
2017-Oct-10 19:13N 43°24' E 004°59'1 2.9
2017-Oct-10 18:56N 43°24' E 004°58'1 2.2
2017-Oct-10 18:29N 43°23' E 004°59'2 3.0
2017-Oct-10 17:59N 43°24' E 004°59'1 1.4
2017-Oct-10 17:30N 43°24' E 004°59'1 0.4
2017-Oct-10 15:54N 43°24' E 004°59'0 0.0
2017-Oct-10 15:30N 43°24' E 004°59'0 0.0
2017-Oct-10 15:00N 43°24' E 004°59'0 0.0
2017-Oct-10 14:00N 43°24' E 004°59'0 0.0
2017-Oct-10 13:27N 43°24' E 004°59'0 0.0
2017-Oct-10 13:00N 43°24' E 004°59'1 1.7
2017-Oct-10 12:29N 43°23' E 004°59'1 1.7
2017-Oct-10 11:59N 43°24' E 004°59'0 0.0
2017-Oct-10 11:29N 43°24' E 004°59'0 0.0
2017-Oct-10 10:59N 43°24' E 004°59'0 0.0
2017-Oct-10 10:26N 43°24' E 004°59'0 0.0
2017-Oct-10 09:59N 43°24' E 004°59'0 0.0
2017-Oct-10 09:26N 43°24' E 004°59'0 0.0
2017-Oct-10 08:38N 43°24' E 004°59'0 0.0
2017-Oct-10 08:26N 43°24' E 004°59'0 0.0
2017-Oct-10 07:56N 43°24' E 004°59'1 1.2
2017-Oct-10 07:15N 43°24' E 004°58'1 2.6
2017-Oct-10 06:57N 43°24' E 004°59'0 0.0
2017-Oct-10 06:28N 43°24' E 004°59'0 0.0
2017-Oct-10 05:52N 43°24' E 004°59'0 0.0
2017-Oct-10 05:22N 43°24' E 004°59'1 3.2
2017-Oct-10 05:00N 43°24' E 004°58'1 0.2
2017-Oct-09 23:56N 43°24' E 004°59'0 0.1
2017-Oct-09 23:30N 43°24' E 004°59'0 0.0
2017-Oct-09 22:57N 43°24' E 004°59'0 0.0
2017-Oct-09 22:21N 43°24' E 004°59'0 0.0
2017-Oct-09 21:51N 43°24' E 004°59'0 0.0
2017-Oct-09 21:30N 43°24' E 004°59'0 0.0
2017-Oct-09 21:00N 43°24' E 004°59'0 0.0
2017-Oct-09 20:18N 43°24' E 004°59'0 0.0
2017-Oct-09 20:00N 43°24' E 004°59'1 1.7
2017-Oct-09 19:28N 43°23' E 004°59'1 1.8
2017-Oct-09 18:58N 43°24' E 004°59'0 0.0
2017-Oct-09 18:28N 43°24' E 004°59'0 0.0
2017-Oct-09 17:58N 43°24' E 004°59'0 0.4
2017-Oct-09 17:30N 43°24' E 004°59'0 0.4
2017-Oct-09 17:00N 43°24' E 004°59'1 0.9
2017-Oct-09 15:59N 43°24' E 004°58'1 1.6
2017-Oct-09 15:27N 43°24' E 004°59'0 0.9
2017-Oct-09 14:55N 43°24' E 004°59'0 0.4
2017-Oct-09 14:14N 43°24' E 004°59'1 2.6
2017-Oct-09 13:59N 43°24' E 004°59'0 0.0
2017-Oct-09 13:29N 43°24' E 004°59'0 0.0
2017-Oct-09 12:59N 43°24' E 004°59'1 1.7
2017-Oct-09 12:24N 43°23' E 004°59'1 2.2
2017-Oct-09 11:57N 43°24' E 004°59'0 0.0
2017-Oct-09 11:30N 43°24' E 004°59'1 2.0
2017-Oct-09 11:00N 43°23' E 004°59'1 1.9
2017-Oct-09 10:28N 43°24' E 004°59'0 0.0
2017-Oct-09 09:58N 43°24' E 004°59'0 0.0
2017-Oct-09 09:28N 43°24' E 004°59'0 0.0
2017-Oct-09 08:58N 43°24' E 004°59'0 0.0
2017-Oct-09 08:28N 43°24' E 004°59'0 0.0
2017-Oct-09 07:58N 43°24' E 004°59'1 1.0
2017-Oct-09 07:26N 43°24' E 004°59'1 1.1
2017-Oct-09 06:55N 43°24' E 004°59'0 0.0
2017-Oct-09 06:28N 43°24' E 004°59'0 0.0
2017-Oct-08 10:50N 43°24' E 004°59'1 3.3
2017-Oct-08 10:30N 43°23' E 004°59'1 2.3
2017-Oct-08 10:00N 43°24' E 004°59'0 0.0
2017-Oct-07 13:50N 43°24' E 004°59'0 0.0
2017-Oct-07 13:30N 43°24' E 004°59'0 0.0
2017-Oct-07 13:00N 43°24' E 004°59'0 0.0
2017-Oct-07 12:30N 43°24' E 004°59'0 0.0
2017-Oct-07 12:00N 43°24' E 004°59'0 0.0
2017-Oct-07 09:28N 43°24' E 004°59'0 0.0
2017-Oct-07 08:49N 43°24' E 004°59'  

Dump ship's entire track history